ADDS METAR Data INFO
IDs: Format: Raw Decoded Include TAF

Data at: 0351 UTC 18 Oct 2017

KCOQ 180335Z AUTO 19003KT 10SM CLR 12/04 A2985 RMK AO2
KCOQ 180315Z AUTO 19003KT 10SM CLR 13/03 A2985 RMK AO2
KCOQ 180255Z AUTO 18004KT 10SM CLR 13/03 A2985 RMK AO2
KCOQ 180235Z AUTO 19005KT 10SM CLR 13/03 A2986 RMK AO2
KCOQ 180215Z AUTO 18006KT 10SM CLR 14/03 A2986 RMK AO2
KCOQ 180155Z AUTO 19005KT 10SM CLR 14/03 A2986 RMK AO2
KCOQ 180135Z AUTO 19006KT 10SM CLR 14/03 A2986 RMK AO2
KCOQ 180116Z AUTO 18003KT 10SM CLR 14/03 A2987 RMK AO2
KCOQ 180055Z AUTO 18003KT 10SM CLR 14/03 A2988 RMK AO2
KCOQ 180035Z AUTO 18003KT 10SM CLR 14/03 A2988 RMK AO2
KCOQ 180016Z AUTO 00000KT 10SM CLR 15/03 A2988 RMK AO2
KCOQ 172355Z AUTO 16003KT 10SM CLR 17/02 A2988 RMK AO2
KCOQ 172335Z AUTO 19003KT 10SM CLR 17/03 A2989 RMK AO2
KCOQ 172315Z AUTO 20004KT 10SM CLR 17/02 A2989 RMK AO2
KCOQ 172255Z AUTO 19003KT 10SM CLR 18/02 A2988 RMK AO2
KCOQ 172235Z AUTO 20005KT 10SM CLR 19/02 A2988 RMK AO2
KCOQ 172215Z AUTO 21005KT 10SM CLR 19/01 A2988 RMK AO2
KCOQ 172155Z AUTO 21003KT 10SM CLR 20/02 A2988 RMK AO2
KCOQ 172135Z AUTO 21008KT 10SM CLR 20/02 A2989 RMK AO2
KCOQ 172115Z AUTO 21006KT 10SM CLR 20/02 A2990 RMK AO2
KCOQ 172055Z AUTO 23007KT 10SM CLR 20/01 A2990 RMK AO2
KCOQ 172035Z AUTO 19008KT 10SM CLR 20/01 A2990 RMK AO2
KCOQ 172015Z AUTO 20007KT 10SM CLR 20/01 A2991 RMK AO2
KCOQ 171955Z AUTO 20008KT 10SM CLR 19/00 A2991 RMK AO2
KCOQ 171935Z AUTO 21009KT 10SM CLR 19/M01 A2992 RMK AO2
KCOQ 171915Z AUTO 19011G14KT 10SM CLR 20/00 A2993 RMK AO2
KCOQ 171855Z AUTO 21007KT 10SM CLR 19/00 A2994 RMK AO2
KCOQ 171835Z AUTO 19009KT 10SM CLR 19/01 A2994 RMK AO2
KCOQ 171815Z AUTO 22011KT 10SM CLR 19/01 A2995 RMK AO2
KCOQ 171755Z AUTO 18007KT 10SM CLR 18/02 A2996 RMK AO2
KCOQ 171735Z AUTO 19007KT 10SM CLR 18/03 A2996 RMK AO2
KCOQ 171715Z AUTO 20007KT 10SM CLR 18/03 A2996 RMK AO2
KCOQ 171655Z AUTO 20006KT 10SM CLR 18/02 A2997 RMK AO2
KCOQ 171635Z AUTO 20006KT 7SM CLR 17/03 A2997 RMK AO2
KCOQ 171615Z AUTO 19005KT 10SM CLR 16/03 A2998 RMK AO2
KCOQ 171555Z AUTO 20006KT 10SM CLR 16/03 A2997 RMK AO2
KCOQ 171535Z AUTO 19004KT 10SM CLR 14/04 A2998 RMK AO2
KCOQ 171515Z AUTO 00000KT 10SM CLR 13/04 A2998 RMK AO2
KCOQ 171455Z AUTO 21003KT 10SM CLR 11/04 A2998 RMK AO2
KCOQ 171435Z AUTO 20003KT 10SM CLR 10/03 A2998 RMK AO2
KCOQ 171415Z AUTO 21003KT 10SM CLR 09/03 A2998 RMK AO2
KCOQ 171355Z AUTO 22004KT 10SM CLR 08/03 A2997 RMK AO2
KCOQ 171335Z AUTO 00000KT 10SM CLR 06/03 A2997 RMK AO2
KCOQ 171314Z AUTO 00000KT 10SM CLR 05/02 A2997 RMK AO2
KCOQ 171255Z AUTO 00000KT 10SM CLR 06/02 A2996 RMK AO2
KCOQ 171235Z AUTO 00000KT 10SM CLR 05/02 A2996 RMK AO2
KCOQ 171214Z AUTO 32005KT 10SM CLR 04/02 A2996 RMK AO2
KCOQ 171155Z AUTO 29004KT 10SM CLR 04/01 A2996 RMK AO2
KCOQ 171135Z AUTO 28004KT 10SM CLR 04/02 A2996 RMK AO2
KCOQ 171115Z AUTO 28004KT 10SM CLR 05/01 A2996 RMK AO2
KCOQ 171055Z AUTO 30005KT 10SM CLR 07/02 A2996 RMK AO2
KCOQ 171035Z AUTO 29004KT 10SM CLR 07/02 A2995 RMK AO2
KCOQ 171015Z AUTO 28005KT 10SM CLR 07/02 A2994 RMK AO2
KCOQ 170955Z AUTO 28005KT 10SM CLR 08/02 A2993 RMK AO2
KCOQ 170935Z AUTO 28005KT 10SM CLR 08/02 A2993 RMK AO2
KCOQ 170915Z AUTO 27006KT 10SM CLR 08/02 A2992 RMK AO2
KCOQ 170855Z AUTO 28006KT 10SM CLR 08/02 A2992 RMK AO2
KCOQ 170835Z AUTO 27007KT 10SM CLR 08/02 A2992 RMK AO2
KCOQ 170815Z AUTO 28006KT 10SM CLR 08/02 A2991 RMK AO2
KCOQ 170755Z AUTO 27005KT 10SM CLR 08/02 A2991 RMK AO2
KCOQ 170735Z AUTO 27006KT 10SM CLR 08/02 A2991 RMK AO2
KCOQ 170715Z AUTO 28005KT 10SM CLR 08/02 A2991 RMK AO2
KCOQ 170655Z AUTO 27006KT 10SM CLR 08/02 A2991 RMK AO2
KCOQ 170635Z AUTO 25005KT 10SM CLR 09/02 A2990 RMK AO2
KCOQ 170615Z AUTO 25004KT 10SM CLR 09/02 A2990 RMK AO2
KCOQ 170555Z AUTO 24005KT 10SM CLR 09/02 A2990 RMK AO2
KCOQ 170535Z AUTO 24005KT 10SM CLR 09/02 A2990 RMK AO2
KCOQ 170515Z AUTO 23005KT 10SM CLR 10/02 A2989 RMK AO2
KCOQ 170455Z AUTO 23006KT 10SM CLR 11/02 A2989 RMK AO2
KCOQ 170435Z AUTO 22007KT 10SM CLR 11/02 A2989 RMK AO2
KCOQ 170415Z AUTO 22007KT 10SM CLR 11/02 A2989 RMK AO2
KCOQ 170355Z AUTO 21010KT 10SM CLR 11/02 A2989 RMK AO2
KCOQ 170335Z AUTO 24006KT 10SM CLR 11/02 A2989 RMK AO2
KCOQ 170315Z AUTO 21006KT 10SM CLR 11/02 A2989 RMK AO2
KCOQ 170255Z AUTO 21006KT 10SM CLR 11/01 A2989 RMK AO2
KCOQ 170235Z AUTO 20005KT 10SM CLR 11/01 A2989 RMK AO2
KCOQ 170215Z AUTO 20007KT 10SM CLR 11/01 A2989 RMK AO2
KCOQ 170155Z AUTO 20008KT 10SM CLR 11/01 A2990 RMK AO2
KCOQ 170135Z AUTO 20006KT 10SM CLR 11/01 A2990 RMK AO2
KCOQ 170115Z AUTO 20006KT 10SM CLR 11/01 A2991 RMK AO2
KCOQ 170055Z AUTO 19006KT 10SM CLR 12/01 A2991 RMK AO2
KCOQ 170035Z AUTO 19007G15KT 10SM CLR 12/01 A2991 RMK AO2
KCOQ 170015Z AUTO 19009KT 10SM CLR 12/01 A2992 RMK AO2
KCOQ 162355Z AUTO 19007KT 10SM CLR 12/01 A2992 RMK AO2 LTG DSNT N
KCOQ 162335Z AUTO 19008KT 10SM CLR 13/00 A2993 RMK AO2
KCOQ 162315Z AUTO 19008KT 10SM CLR 13/00 A2993 RMK AO2
KCOQ 162255Z AUTO 20011KT 10SM CLR 14/M01 A2994 RMK AO2
KCOQ 162235Z AUTO 20011G16KT 10SM CLR 14/M01 A2994 RMK AO2
KCOQ 162215Z AUTO 20010G16KT 10SM CLR 15/M01 A2994 RMK AO2
KCOQ 162154Z AUTO 19013G20KT 10SM CLR 16/M01 A2995 RMK AO2
KCOQ 162135Z AUTO 20011G20KT 10SM CLR 16/M01 A2996 RMK AO2
KCOQ 162115Z AUTO 19015G19KT 10SM CLR 16/M01 A2997 RMK AO2
KCOQ 162055Z AUTO 19014G17KT 10SM CLR 16/M01 A2998 RMK AO2
KCOQ 162035Z AUTO 19012G17KT 10SM CLR 16/M01 A2999 RMK AO2
KCOQ 162015Z AUTO 19012G15KT 10SM CLR 16/M01 A3000 RMK AO2
KCOQ 161955Z AUTO 21011G14KT 10SM CLR 16/M02 A3001 RMK AO2
KCOQ 161935Z AUTO 21010KT 10SM CLR 16/M02 A3002 RMK AO2
KCOQ 161915Z AUTO 22011KT 10SM CLR 15/M01 A3003 RMK AO2
KCOQ 161855Z AUTO 23011G14KT 10SM CLR 14/M01 A3005 RMK AO2
KCOQ 161835Z AUTO 20011G21KT 10SM CLR 14/M01 A3006 RMK AO2
KCOQ 161815Z AUTO 24012G18KT 10SM CLR 14/M01 A3007 RMK AO2
KCOQ 161755Z AUTO 24014G19KT 10SM CLR 13/01 A3008 RMK AO2
KCOQ 161735Z AUTO 22010G17KT 10SM CLR 13/00 A3010 RMK AO2
KCOQ 161715Z AUTO 24011G15KT 10SM CLR 13/01 A3010 RMK AO2
KCOQ 161655Z AUTO 24013G18KT 10SM CLR 12/01 A3010 RMK AO2
KCOQ 161635Z AUTO 20009KT 10SM CLR 12/02 A3011 RMK AO2
KCOQ 161615Z AUTO 20009G14KT 182V252 10SM CLR 11/03 A3011 RMK AO2
KCOQ 161555Z AUTO 19007KT 172V232 10SM CLR 10/03 A3012 RMK AO2